Emerald Leader — C6WP4 — position and weather

sailwx.info

Track history (hours):
 
Tides and Currents Weather Stations Pressure Air Temp Water Temp Dewpoint Dewpoint Depression Visibility Wind Speed Wind Dir Waves Ship Positions

Emerald Leader

Last reported at 2015-May-28 19:33 UTC. Time now 2015-May-28 20:10 UTC.
Position N 43°13' E 010°10'.

Length 176 m; draft 8.7 m.

Type: Cargo ship. MMSI: 308688000.

Date/timePositionNaut miles runAvg speedWind from/ knotsBaromVisibWave heightAir tempDewpointWater temp
2015-May-28 19:33N 43°13' E 010°10'1 0.5
2015-May-28 18:33N 43°14' E 010°09'1 0.7
2015-May-28 17:33N 43°14' E 010°08'1 0.7
2015-May-28 16:33N 43°14' E 010°07'6 5.5
2015-May-28 15:33N 43°15' E 009°60'1514.8
2015-May-28 14:33N 43°15' E 009°40'1515.2
2015-May-28 13:34N 43°11' E 009°19'1414.4
2015-May-28 12:33N 43°08' E 009°00'4715.7
2015-May-28 09:33N 42°51' E 008°00'1815.8
2015-May-28 08:27N 42°44' E 007°38'25015.6
2015-May-27 16:22N 41°13' E 002°25'2015.5
2015-May-27 15:06N 41°06' E 002°01'915.5
2015-May-27 14:31N 41°05' E 001°49'1914.9
2015-May-27 13:15N 41°04' E 001°23'811.6
2015-May-27 12:32N 41°05' E 001°13'29 2.4
2015-May-27 00:32N 40°37' E 001°06'1312.3
2015-May-26 23:29N 40°26' E 000°58'1212.9
2015-May-26 22:32N 40°17' E 000°47'1413.8
2015-May-26 21:32N 40°07' E 000°34'4513.6
2015-May-26 18:12N 39°38' W 000°11'1 0.1
2015-May-26 10:30N 39°37' W 000°12'7314.4
2015-May-26 05:28N 38°28' E 000°16'1516.3
2015-May-26 04:33N 38°15' E 000°06'1616.4
2015-May-26 03:33N 38°02' W 000°06'1616.4
2015-May-26 02:33N 37°48' W 000°17'1616.4
2015-May-26 01:33N 37°35' W 000°29'1916.3
2015-May-26 00:24N 37°21' W 000°46'1416.3
2015-May-25 23:33N 37°13' W 000°59'8215.9
2015-May-25 18:23N 36°21' W 002°19'1315.8
2015-May-25 17:32N 36°23' W 002°36'128 3.9
2015-May-24 08:33N 36°02' W 005°12'1615.6
2015-May-24 07:33N 35°57' W 005°30'11613.8
2015-May-23 23:07N 36°15' W 007°52'814.3
2015-May-23 22:33N 36°17' W 008°02'1514.6
2015-May-23 21:33N 36°21' W 008°20'1514.7
2015-May-23 20:33N 36°25' W 008°37'1414.5
2015-May-23 19:34N 36°29' W 008°55'1514.6
2015-May-23 18:33N 36°33' W 009°12'1414.1
2015-May-23 17:33N 36°41' W 009°26'1514.5
2015-May-23 16:33N 36°54' W 009°35'1514.9
2015-May-23 15:33N 37°08' W 009°40'1514.7
2015-May-23 14:33N 37°23' W 009°43'1514.8
2015-May-23 13:33N 37°37' W 009°46'1515.2
2015-May-23 12:33N 37°52' W 009°50'1515.1
2015-May-23 11:33N 38°07' W 009°55'1515.0
2015-May-23 10:33N 38°21' W 010°00'1514.9
2015-May-23 09:33N 38°35' W 010°05'1514.8
2015-May-23 08:33N 38°50' W 010°06'1514.9
2015-May-23 07:33N 39°05' W 010°06'1514.8
2015-May-23 06:33N 39°19' W 010°02'1514.6
2015-May-23 05:33N 39°33' W 009°57'1514.9
2015-May-23 04:33N 39°48' W 009°53'1514.7
2015-May-23 03:33N 40°02' W 009°47'1514.7
2015-May-23 02:33N 40°16' W 009°42'1514.9
2015-May-23 01:33N 40°31' W 009°37'3114.7
2015-May-22 23:27N 41°01' W 009°27'  
2015-May-20 18:16N 50°33' W 005°40'1014.7
2015-May-20 17:33N 50°40' W 005°28'10015.7
2015-May-20 11:11N 51°24' W 003°04'1219.2
2015-May-20 10:33N 51°30' W 002°48'3 2.9
2015-May-20 09:33N 51°30' W 002°43'0 0.0
2015-May-20 08:33N 51°30' W 002°43'0 0.0
2015-May-20 07:33N 51°30' W 002°43'0 0.0
2015-May-20 06:33N 51°30' W 002°43'0 0.0
2015-May-20 05:33N 51°30' W 002°43'0 0.0
2015-May-20 04:33N 51°30' W 002°43'0 0.0
2015-May-20 03:33N 51°30' W 002°43'0 0.0
2015-May-20 02:33N 51°30' W 002°43'0 0.0
2015-May-20 01:33N 51°30' W 002°43'0 0.0
2015-May-20 00:33N 51°30' W 002°43'0 0.0
2015-May-19 23:33N 51°30' W 002°43'0 0.0
2015-May-19 22:33N 51°30' W 002°43'0 0.0
2015-May-19 21:33N 51°30' W 002°43'0 0.0
2015-May-19 20:33N 51°30' W 002°43'0 0.0
2015-May-19 19:33N 51°30' W 002°43'0 0.0
2015-May-19 18:33N 51°30' W 002°43'0 0.0
2015-May-19 17:33N 51°30' W 002°43'0 0.0
2015-May-19 16:33N 51°30' W 002°43'0 0.0
2015-May-19 15:33N 51°30' W 002°43'0 0.0
2015-May-19 14:33N 51°30' W 002°43'0 0.0
2015-May-19 13:33N 51°30' W 002°43'0 0.0
2015-May-19 12:33N 51°30' W 002°43'0 0.0
2015-May-19 11:33N 51°30' W 002°43'0 0.0
2015-May-19 10:33N 51°30' W 002°43'0 0.0
2015-May-19 09:33N 51°30' W 002°43'0 0.0
2015-May-19 08:33N 51°30' W 002°43'0 0.0
2015-May-19 07:33N 51°30' W 002°43'0 0.0
2015-May-19 06:33N 51°30' W 002°43'0 0.0
2015-May-19 05:33N 51°30' W 002°43'0 0.0
2015-May-19 04:30N 51°30' W 002°43'0 0.0
2015-May-19 03:33N 51°30' W 002°43'0 0.0
2015-May-19 02:33N 51°30' W 002°43'0 0.0
2015-May-19 01:33N 51°30' W 002°43'0 0.0
2015-May-19 00:33N 51°30' W 002°43'0 0.0
2015-May-18 23:33N 51°30' W 002°43'0 0.0
2015-May-18 22:33N 51°30' W 002°43'0 0.0
2015-May-18 21:33N 51°30' W 002°43'0 0.0
2015-May-18 20:33N 51°30' W 002°43'0 0.0
2015-May-18 19:33N 51°30' W 002°43'  
Track history (hours):
 
Tides and Currents Weather Stations Pressure Air Temp Water Temp Dewpoint Dewpoint Depression Visibility Wind Speed Wind Dir Waves Ship Positions

Emerald Leader

Last reported at 2015-May-28 19:33 UTC. Time now 2015-May-28 20:10 UTC.
Position N 43°13' E 010°10'.

Length 176 m; draft 8.7 m.

Type: Cargo ship. MMSI: 308688000.

Date/timePositionNaut miles runAvg speedWind from/ knotsBaromVisibWave heightAir tempDewpointWater temp
2015-May-28 19:33N 43°13' E 010°10'1 0.5
2015-May-28 18:33N 43°14' E 010°09'1 0.7
2015-May-28 17:33N 43°14' E 010°08'1 0.7
2015-May-28 16:33N 43°14' E 010°07'6 5.5
2015-May-28 15:33N 43°15' E 009°60'1514.8
2015-May-28 14:33N 43°15' E 009°40'1515.2
2015-May-28 13:34N 43°11' E 009°19'1414.4
2015-May-28 12:33N 43°08' E 009°00'4715.7
2015-May-28 09:33N 42°51' E 008°00'1815.8
2015-May-28 08:27N 42°44' E 007°38'25015.6
2015-May-27 16:22N 41°13' E 002°25'2015.5
2015-May-27 15:06N 41°06' E 002°01'915.5
2015-May-27 14:31N 41°05' E 001°49'1914.9
2015-May-27 13:15N 41°04' E 001°23'811.6
2015-May-27 12:32N 41°05' E 001°13'29 2.4
2015-May-27 00:32N 40°37' E 001°06'1312.3
2015-May-26 23:29N 40°26' E 000°58'1212.9
2015-May-26 22:32N 40°17' E 000°47'1413.8
2015-May-26 21:32N 40°07' E 000°34'4513.6
2015-May-26 18:12N 39°38' W 000°11'1 0.1
2015-May-26 10:30N 39°37' W 000°12'7314.4
2015-May-26 05:28N 38°28' E 000°16'1516.3
2015-May-26 04:33N 38°15' E 000°06'1616.4
2015-May-26 03:33N 38°02' W 000°06'1616.4
2015-May-26 02:33N 37°48' W 000°17'1616.4
2015-May-26 01:33N 37°35' W 000°29'1916.3
2015-May-26 00:24N 37°21' W 000°46'1416.3
2015-May-25 23:33N 37°13' W 000°59'8215.9
2015-May-25 18:23N 36°21' W 002°19'1315.8
2015-May-25 17:32N 36°23' W 002°36'128 3.9
2015-May-24 08:33N 36°02' W 005°12'1615.6
2015-May-24 07:33N 35°57' W 005°30'11613.8
2015-May-23 23:07N 36°15' W 007°52'814.3
2015-May-23 22:33N 36°17' W 008°02'1514.6
2015-May-23 21:33N 36°21' W 008°20'1514.7
2015-May-23 20:33N 36°25' W 008°37'1414.5
2015-May-23 19:34N 36°29' W 008°55'1514.6
2015-May-23 18:33N 36°33' W 009°12'1414.1
2015-May-23 17:33N 36°41' W 009°26'1514.5
2015-May-23 16:33N 36°54' W 009°35'1514.9
2015-May-23 15:33N 37°08' W 009°40'1514.7
2015-May-23 14:33N 37°23' W 009°43'1514.8
2015-May-23 13:33N 37°37' W 009°46'1515.2
2015-May-23 12:33N 37°52' W 009°50'1515.1
2015-May-23 11:33N 38°07' W 009°55'1515.0
2015-May-23 10:33N 38°21' W 010°00'1514.9
2015-May-23 09:33N 38°35' W 010°05'1514.8
2015-May-23 08:33N 38°50' W 010°06'1514.9
2015-May-23 07:33N 39°05' W 010°06'1514.8
2015-May-23 06:33N 39°19' W 010°02'1514.6
2015-May-23 05:33N 39°33' W 009°57'1514.9
2015-May-23 04:33N 39°48' W 009°53'1514.7
2015-May-23 03:33N 40°02' W 009°47'1514.7
2015-May-23 02:33N 40°16' W 009°42'1514.9
2015-May-23 01:33N 40°31' W 009°37'3114.7
2015-May-22 23:27N 41°01' W 009°27'  
2015-May-20 18:16N 50°33' W 005°40'1014.7
2015-May-20 17:33N 50°40' W 005°28'10015.7
2015-May-20 11:11N 51°24' W 003°04'1219.2
2015-May-20 10:33N 51°30' W 002°48'3 2.9
2015-May-20 09:33N 51°30' W 002°43'0 0.0
2015-May-20 08:33N 51°30' W 002°43'0 0.0
2015-May-20 07:33N 51°30' W 002°43'0 0.0
2015-May-20 06:33N 51°30' W 002°43'0 0.0
2015-May-20 05:33N 51°30' W 002°43'0 0.0
2015-May-20 04:33N 51°30' W 002°43'0 0.0
2015-May-20 03:33N 51°30' W 002°43'0 0.0
2015-May-20 02:33N 51°30' W 002°43'0 0.0
2015-May-20 01:33N 51°30' W 002°43'0 0.0
2015-May-20 00:33N 51°30' W 002°43'0 0.0
2015-May-19 23:33N 51°30' W 002°43'0 0.0
2015-May-19 22:33N 51°30' W 002°43'0 0.0
2015-May-19 21:33N 51°30' W 002°43'0 0.0
2015-May-19 20:33N 51°30' W 002°43'0 0.0
2015-May-19 19:33N 51°30' W 002°43'0 0.0
2015-May-19 18:33N 51°30' W 002°43'0 0.0
2015-May-19 17:33N 51°30' W 002°43'0 0.0
2015-May-19 16:33N 51°30' W 002°43'0 0.0
2015-May-19 15:33N 51°30' W 002°43'0 0.0
2015-May-19 14:33N 51°30' W 002°43'0 0.0
2015-May-19 13:33N 51°30' W 002°43'0 0.0
2015-May-19 12:33N 51°30' W 002°43'0 0.0
2015-May-19 11:33N 51°30' W 002°43'0 0.0
2015-May-19 10:33N 51°30' W 002°43'0 0.0
2015-May-19 09:33N 51°30' W 002°43'0 0.0
2015-May-19 08:33N 51°30' W 002°43'0 0.0
2015-May-19 07:33N 51°30' W 002°43'0 0.0
2015-May-19 06:33N 51°30' W 002°43'0 0.0
2015-May-19 05:33N 51°30' W 002°43'0 0.0
2015-May-19 04:30N 51°30' W 002°43'0 0.0
2015-May-19 03:33N 51°30' W 002°43'0 0.0
2015-May-19 02:33N 51°30' W 002°43'0 0.0
2015-May-19 01:33N 51°30' W 002°43'0 0.0
2015-May-19 00:33N 51°30' W 002°43'0 0.0
2015-May-18 23:33N 51°30' W 002°43'0 0.0
2015-May-18 22:33N 51°30' W 002°43'0 0.0
2015-May-18 21:33N 51°30' W 002°43'0 0.0
2015-May-18 20:33N 51°30' W 002°43'0 0.0
2015-May-18 19:33N 51°30' W 002°43'  

Dump ship's entire track history